CheckWX is a tool to help pilots better visualize weather data.  It is not intended as a substitute for an official pre-flight weather briefing.

09:55:10 UTC

ENTO METAR
Sandefjord Torp Airport
Torp, Norway
Current

35 mins ago

ENTO 040920Z 03008KT 320V050 9999 BKN017/// OVC029/// 13/09 Q1002 NOSIG
Observed
Jul-4 @ 09:20 UTC
Wind
  • 030° at 8 KTS
Visibility
10,000+ meters
Flight Rules
MVFR
Cloud Levels
  • Broken at 1,700' AGL
  • Overcast at 2,900' AGL
Temperature
13°C / 55°F
Dewpoint
C / 48°F
Humidity
77%
Altimeter
29.59" Hg
Pressure
1001.92 hPa
Previous

1 hour ago

ENTO 040850Z 03007KT 320V050 9999 FEW014/// SCT020/// OVC027/// 13/09 Q1002 NOSIG
Observed
Jul-4 @ 08:50 UTC
Wind
  • 030° at 7 KTS
Visibility
10,000+ meters
Flight Rules
MVFR
Cloud Levels
  • Few at 1,400' AGL
  • Scattered at 2,000' AGL
  • Overcast at 2,700' AGL
Temperature
13°C / 55°F
Dewpoint
C / 48°F
Humidity
77%
Altimeter
29.59" Hg
Pressure
1001.92 hPa
Previous

2 hours ago

ENTO 040820Z 03008KT 330V060 9999 BKN015 12/09 Q1002 NOSIG
Observed
Jul-4 @ 08:20 UTC
Wind
  • 030° at 8 KTS
Visibility
10,000+ meters
Flight Rules
MVFR
Cloud Levels
  • Broken at 1,500' AGL
Temperature
12°C / 54°F
Dewpoint
C / 48°F
Humidity
82%
Altimeter
29.59" Hg
Pressure
1001.92 hPa